sensor_id;sensor_type;location;lat;lon;timestamp;temperature;humidity
33955;DHT22;20233;50.804;7.126;2023-12-20T00:00:57;8.30;99.90
33955;DHT22;20233;50.804;7.126;2023-12-20T00:03:22;8.40;99.90
33955;DHT22;20233;50.804;7.126;2023-12-20T00:05:49;8.40;99.90
33955;DHT22;20233;50.804;7.126;2023-12-20T00:08:15;8.30;99.90
33955;DHT22;20233;50.804;7.126;2023-12-20T00:10:40;8.40;99.90
33955;DHT22;20233;50.804;7.126;2023-12-20T00:13:06;8.30;99.90
33955;DHT22;20233;50.804;7.126;2023-12-20T00:15:33;8.40;99.90
33955;DHT22;20233;50.804;7.126;2023-12-20T00:17:59;8.40;99.90
33955;DHT22;20233;50.804;7.126;2023-12-20T00:20:24;8.40;99.90
33955;DHT22;20233;50.804;7.126;2023-12-20T00:22:50;8.40;99.90
33955;DHT22;20233;50.804;7.126;2023-12-20T00:25:15;8.40;99.90
33955;DHT22;20233;50.804;7.126;2023-12-20T00:27:41;8.40;99.90
33955;DHT22;20233;50.804;7.126;2023-12-20T00:30:07;8.40;99.90
33955;DHT22;20233;50.804;7.126;2023-12-20T00:32:35;8.40;99.90
33955;DHT22;20233;50.804;7.126;2023-12-20T00:37:27;8.40;99.90
33955;DHT22;20233;50.804;7.126;2023-12-20T00:39:52;8.40;99.90
33955;DHT22;20233;50.804;7.126;2023-12-20T00:42:18;8.40;99.90
33955;DHT22;20233;50.804;7.126;2023-12-20T00:44:44;8.40;99.90
33955;DHT22;20233;50.804;7.126;2023-12-20T00:47:10;8.40;99.90
33955;DHT22;20233;50.804;7.126;2023-12-20T00:49:35;8.40;99.90
33955;DHT22;20233;50.804;7.126;2023-12-20T00:52:01;8.40;99.90
33955;DHT22;20233;50.804;7.126;2023-12-20T00:54:26;8.40;99.90
33955;DHT22;20233;50.804;7.126;2023-12-20T00:56:52;8.40;99.90
33955;DHT22;20233;50.804;7.126;2023-12-20T00:59:17;8.40;99.90
33955;DHT22;20233;50.804;7.126;2023-12-20T01:01:44;8.30;99.90
33955;DHT22;20233;50.804;7.126;2023-12-20T01:04:09;8.40;99.90
33955;DHT22;20233;50.804;7.126;2023-12-20T01:06:35;8.40;99.90
33955;DHT22;20233;50.804;7.126;2023-12-20T01:09:01;8.30;99.90
33955;DHT22;20233;50.804;7.126;2023-12-20T01:11:26;8.20;99.90
33955;DHT22;20233;50.804;7.126;2023-12-20T01:13:52;8.20;99.90
33955;DHT22;20233;50.804;7.126;2023-12-20T01:16:17;8.30;99.90
33955;DHT22;20233;50.804;7.126;2023-12-20T01:18:43;8.20;99.90
33955;DHT22;20233;50.804;7.126;2023-12-20T01:21:08;8.30;99.90
33955;DHT22;20233;50.804;7.126;2023-12-20T01:23:34;8.20;99.90
33955;DHT22;20233;50.804;7.126;2023-12-20T01:26:00;8.20;99.90
33955;DHT22;20233;50.804;7.126;2023-12-20T01:28:26;8.30;99.90
33955;DHT22;20233;50.804;7.126;2023-12-20T01:30:51;8.20;99.90
33955;DHT22;20233;50.804;7.126;2023-12-20T01:33:18;8.20;99.90
33955;DHT22;20233;50.804;7.126;2023-12-20T01:35:43;8.30;99.90
33955;DHT22;20233;50.804;7.126;2023-12-20T01:38:09;8.30;99.90
33955;DHT22;20233;50.804;7.126;2023-12-20T01:40:34;8.20;99.90
33955;DHT22;20233;50.804;7.126;2023-12-20T01:43:09;8.20;99.90
33955;DHT22;20233;50.804;7.126;2023-12-20T01:45:35;8.20;99.90
33955;DHT22;20233;50.804;7.126;2023-12-20T01:48:01;8.20;99.90
33955;DHT22;20233;50.804;7.126;2023-12-20T01:50:28;8.20;99.90
33955;DHT22;20233;50.804;7.126;2023-12-20T01:52:55;8.10;99.90
33955;DHT22;20233;50.804;7.126;2023-12-20T01:55:23;8.10;99.90
33955;DHT22;20233;50.804;7.126;2023-12-20T01:57:49;8.10;99.90
33955;DHT22;20233;50.804;7.126;2023-12-20T02:00:16;8.00;99.90
33955;DHT22;20233;50.804;7.126;2023-12-20T02:02:43;8.00;99.90
33955;DHT22;20233;50.804;7.126;2023-12-20T02:05:09;8.00;99.90
33955;DHT22;20233;50.804;7.126;2023-12-20T02:07:36;8.00;99.90
33955;DHT22;20233;50.804;7.126;2023-12-20T02:10:02;7.90;99.90
33955;DHT22;20233;50.804;7.126;2023-12-20T02:12:27;7.90;99.90
33955;DHT22;20233;50.804;7.126;2023-12-20T02:14:53;7.80;99.90
33955;DHT22;20233;50.804;7.126;2023-12-20T02:17:19;7.80;99.90
33955;DHT22;20233;50.804;7.126;2023-12-20T02:19:45;7.70;99.90
33955;DHT22;20233;50.804;7.126;2023-12-20T02:22:11;7.80;99.90
33955;DHT22;20233;50.804;7.126;2023-12-20T02:24:37;7.60;99.90
33955;DHT22;20233;50.804;7.126;2023-12-20T02:27:08;7.50;99.90
33955;DHT22;20233;50.804;7.126;2023-12-20T02:29:34;7.50;99.90
33955;DHT22;20233;50.804;7.126;2023-12-20T02:32:00;7.40;99.90
33955;DHT22;20233;50.804;7.126;2023-12-20T02:34:26;7.40;99.90
33955;DHT22;20233;50.804;7.126;2023-12-20T02:36:51;7.30;99.90
33955;DHT22;20233;50.804;7.126;2023-12-20T02:39:18;7.30;99.90
33955;DHT22;20233;50.804;7.126;2023-12-20T02:41:44;7.20;99.90
33955;DHT22;20233;50.804;7.126;2023-12-20T02:44:10;7.10;99.90
33955;DHT22;20233;50.804;7.126;2023-12-20T02:46:35;7.00;99.90
33955;DHT22;20233;50.804;7.126;2023-12-20T02:49:01;7.00;99.90
33955;DHT22;20233;50.804;7.126;2023-12-20T02:51:26;6.90;99.90
33955;DHT22;20233;50.804;7.126;2023-12-20T02:53:52;6.90;99.90
33955;DHT22;20233;50.804;7.126;2023-12-20T02:56:17;6.90;99.90
33955;DHT22;20233;50.804;7.126;2023-12-20T02:58:43;6.90;99.90
33955;DHT22;20233;50.804;7.126;2023-12-20T03:01:08;6.90;99.90
33955;DHT22;20233;50.804;7.126;2023-12-20T03:03:34;6.90;99.90
33955;DHT22;20233;50.804;7.126;2023-12-20T03:06:00;6.90;99.90
33955;DHT22;20233;50.804;7.126;2023-12-20T03:08:25;6.90;99.90
33955;DHT22;20233;50.804;7.126;2023-12-20T03:10:51;6.80;99.90
33955;DHT22;20233;50.804;7.126;2023-12-20T03:13:16;6.90;99.90
33955;DHT22;20233;50.804;7.126;2023-12-20T03:15:42;6.90;99.90
33955;DHT22;20233;50.804;7.126;2023-12-20T03:18:07;6.90;99.90
33955;DHT22;20233;50.804;7.126;2023-12-20T03:20:33;6.90;99.90
33955;DHT22;20233;50.804;7.126;2023-12-20T03:23:00;6.90;99.90
33955;DHT22;20233;50.804;7.126;2023-12-20T03:25:25;7.00;99.90
33955;DHT22;20233;50.804;7.126;2023-12-20T03:27:51;7.00;99.90
33955;DHT22;20233;50.804;7.126;2023-12-20T03:30:17;7.00;99.90
33955;DHT22;20233;50.804;7.126;2023-12-20T03:32:43;7.10;99.90
33955;DHT22;20233;50.804;7.126;2023-12-20T03:35:09;7.10;99.90
33955;DHT22;20233;50.804;7.126;2023-12-20T03:37:34;7.10;99.90
33955;DHT22;20233;50.804;7.126;2023-12-20T03:40:00;7.20;99.90
33955;DHT22;20233;50.804;7.126;2023-12-20T03:42:25;7.20;99.90
33955;DHT22;20233;50.804;7.126;2023-12-20T03:44:51;7.20;99.90
33955;DHT22;20233;50.804;7.126;2023-12-20T03:47:16;7.30;99.90
33955;DHT22;20233;50.804;7.126;2023-12-20T03:49:42;7.20;99.90
33955;DHT22;20233;50.804;7.126;2023-12-20T03:52:09;7.20;99.90
33955;DHT22;20233;50.804;7.126;2023-12-20T03:54:37;7.20;99.90
33955;DHT22;20233;50.804;7.126;2023-12-20T03:57:03;7.30;99.90
33955;DHT22;20233;50.804;7.126;2023-12-20T03:59:29;7.30;99.90
33955;DHT22;20233;50.804;7.126;2023-12-20T04:01:55;7.30;99.90
33955;DHT22;20233;50.804;7.126;2023-12-20T04:04:21;7.20;99.90
33955;DHT22;20233;50.804;7.126;2023-12-20T04:06:46;7.10;99.90
33955;DHT22;20233;50.804;7.126;2023-12-20T04:09:12;7.10;99.90
33955;DHT22;20233;50.804;7.126;2023-12-20T04:11:38;7.20;99.90
33955;DHT22;20233;50.804;7.126;2023-12-20T04:14:03;7.20;99.90
33955;DHT22;20233;50.804;7.126;2023-12-20T04:16:32;7.20;99.90
33955;DHT22;20233;50.804;7.126;2023-12-20T04:18:58;7.20;99.90
33955;DHT22;20233;50.804;7.126;2023-12-20T04:21:23;7.20;99.90
33955;DHT22;20233;50.804;7.126;2023-12-20T04:23:49;7.20;99.90
33955;DHT22;20233;50.804;7.126;2023-12-20T04:26:14;7.20;99.90
33955;DHT22;20233;50.804;7.126;2023-12-20T04:28:40;7.30;99.90
33955;DHT22;20233;50.804;7.126;2023-12-20T04:31:05;7.30;99.90
33955;DHT22;20233;50.804;7.126;2023-12-20T04:33:31;7.30;99.90
33955;DHT22;20233;50.804;7.126;2023-12-20T04:35:56;7.30;99.90
33955;DHT22;20233;50.804;7.126;2023-12-20T04:38:23;7.20;99.90
33955;DHT22;20233;50.804;7.126;2023-12-20T04:40:48;7.20;99.90
33955;DHT22;20233;50.804;7.126;2023-12-20T04:43:14;7.20;99.90
33955;DHT22;20233;50.804;7.126;2023-12-20T04:45:39;7.20;99.90
33955;DHT22;20233;50.804;7.126;2023-12-20T04:48:05;7.20;99.90
33955;DHT22;20233;50.804;7.126;2023-12-20T04:50:31;7.20;99.90
33955;DHT22;20233;50.804;7.126;2023-12-20T04:52:56;7.20;99.90
33955;DHT22;20233;50.804;7.126;2023-12-20T04:55:22;7.30;99.90
33955;DHT22;20233;50.804;7.126;2023-12-20T04:57:47;7.20;99.90
33955;DHT22;20233;50.804;7.126;2023-12-20T05:00:13;7.20;99.90
33955;DHT22;20233;50.804;7.126;2023-12-20T05:02:40;7.30;99.90
33955;DHT22;20233;50.804;7.126;2023-12-20T05:05:06;7.30;99.90
33955;DHT22;20233;50.804;7.126;2023-12-20T05:07:32;7.30;99.90
33955;DHT22;20233;50.804;7.126;2023-12-20T05:09:58;7.30;99.90
33955;DHT22;20233;50.804;7.126;2023-12-20T05:12:24;7.20;99.90
33955;DHT22;20233;50.804;7.126;2023-12-20T05:14:51;7.20;99.90
33955;DHT22;20233;50.804;7.126;2023-12-20T05:17:17;7.20;99.90
33955;DHT22;20233;50.804;7.126;2023-12-20T05:19:42;7.10;99.90
33955;DHT22;20233;50.804;7.126;2023-12-20T05:22:08;7.10;99.90
33955;DHT22;20233;50.804;7.126;2023-12-20T05:24:36;7.00;99.90
33955;DHT22;20233;50.804;7.126;2023-12-20T05:27:04;7.00;99.90
33955;DHT22;20233;50.804;7.126;2023-12-20T05:29:32;6.90;99.90
33955;DHT22;20233;50.804;7.126;2023-12-20T05:32:00;7.00;99.90
33955;DHT22;20233;50.804;7.126;2023-12-20T05:34:28;7.00;99.90
33955;DHT22;20233;50.804;7.126;2023-12-20T05:36:56;7.00;99.90
33955;DHT22;20233;50.804;7.126;2023-12-20T05:39:23;7.00;99.90
33955;DHT22;20233;50.804;7.126;2023-12-20T05:41:50;6.90;99.90
33955;DHT22;20233;50.804;7.126;2023-12-20T05:44:17;7.00;99.90
33955;DHT22;20233;50.804;7.126;2023-12-20T05:46:45;7.00;99.90
33955;DHT22;20233;50.804;7.126;2023-12-20T05:49:11;6.90;99.90
33955;DHT22;20233;50.804;7.126;2023-12-20T05:51:39;6.90;99.90
33955;DHT22;20233;50.804;7.126;2023-12-20T05:54:06;6.90;99.90
33955;DHT22;20233;50.804;7.126;2023-12-20T05:56:34;6.80;99.90
33955;DHT22;20233;50.804;7.126;2023-12-20T05:59:02;6.90;99.90
33955;DHT22;20233;50.804;7.126;2023-12-20T06:01:30;6.90;99.90
33955;DHT22;20233;50.804;7.126;2023-12-20T06:03:58;6.90;99.90
33955;DHT22;20233;50.804;7.126;2023-12-20T06:06:26;6.90;99.90
33955;DHT22;20233;50.804;7.126;2023-12-20T06:08:53;6.90;99.90
33955;DHT22;20233;50.804;7.126;2023-12-20T06:11:20;6.90;99.90
33955;DHT22;20233;50.804;7.126;2023-12-20T06:13:45;6.90;99.90
33955;DHT22;20233;50.804;7.126;2023-12-20T06:16:11;6.80;99.90
33955;DHT22;20233;50.804;7.126;2023-12-20T06:18:36;6.80;99.90
33955;DHT22;20233;50.804;7.126;2023-12-20T06:21:03;6.90;99.90
33955;DHT22;20233;50.804;7.126;2023-12-20T06:23:30;6.80;99.90
33955;DHT22;20233;50.804;7.126;2023-12-20T06:25:56;6.90;99.90
33955;DHT22;20233;50.804;7.126;2023-12-20T06:28:23;7.00;99.90
33955;DHT22;20233;50.804;7.126;2023-12-20T06:30:50;6.90;99.90
33955;DHT22;20233;50.804;7.126;2023-12-20T06:33:18;7.00;99.90
33955;DHT22;20233;50.804;7.126;2023-12-20T06:35:46;7.00;99.90
33955;DHT22;20233;50.804;7.126;2023-12-20T06:38:12;7.10;99.90
33955;DHT22;20233;50.804;7.126;2023-12-20T06:40:38;7.10;99.90
33955;DHT22;20233;50.804;7.126;2023-12-20T06:43:05;6.90;99.90
33955;DHT22;20233;50.804;7.126;2023-12-20T06:45:33;7.00;99.90
33955;DHT22;20233;50.804;7.126;2023-12-20T06:48:00;7.00;99.90
33955;DHT22;20233;50.804;7.126;2023-12-20T06:50:27;7.00;99.90
33955;DHT22;20233;50.804;7.126;2023-12-20T06:52:55;7.00;99.90
33955;DHT22;20233;50.804;7.126;2023-12-20T06:55:22;7.00;99.90
33955;DHT22;20233;50.804;7.126;2023-12-20T06:57:47;7.00;99.90
33955;DHT22;20233;50.804;7.126;2023-12-20T07:00:13;7.00;99.90
33955;DHT22;20233;50.804;7.126;2023-12-20T07:02:39;7.00;99.90
33955;DHT22;20233;50.804;7.126;2023-12-20T07:05:04;7.00;99.90
33955;DHT22;20233;50.804;7.126;2023-12-20T07:07:30;7.00;99.90
33955;DHT22;20233;50.804;7.126;2023-12-20T07:09:56;7.00;99.90
33955;DHT22;20233;50.804;7.126;2023-12-20T07:12:21;7.00;99.90
33955;DHT22;20233;50.804;7.126;2023-12-20T07:14:47;7.00;99.90
33955;DHT22;20233;50.804;7.126;2023-12-20T07:17:12;7.10;99.90
33955;DHT22;20233;50.804;7.126;2023-12-20T07:19:40;7.10;99.90
33955;DHT22;20233;50.804;7.126;2023-12-20T07:22:06;7.10;99.90
33955;DHT22;20233;50.804;7.126;2023-12-20T07:24:32;7.10;99.90
33955;DHT22;20233;50.804;7.126;2023-12-20T07:27:00;7.10;99.90
33955;DHT22;20233;50.804;7.126;2023-12-20T07:29:25;7.10;99.90
33955;DHT22;20233;50.804;7.126;2023-12-20T07:31:53;7.10;99.90
33955;DHT22;20233;50.804;7.126;2023-12-20T07:34:20;7.10;99.90
33955;DHT22;20233;50.804;7.126;2023-12-20T07:36:45;7.10;99.90
33955;DHT22;20233;50.804;7.126;2023-12-20T07:39:11;7.10;99.90
33955;DHT22;20233;50.804;7.126;2023-12-20T07:41:37;7.10;99.90
33955;DHT22;20233;50.804;7.126;2023-12-20T07:44:04;7.10;99.90
33955;DHT22;20233;50.804;7.126;2023-12-20T07:46:30;7.10;99.90
33955;DHT22;20233;50.804;7.126;2023-12-20T07:48:55;7.10;99.90
33955;DHT22;20233;50.804;7.126;2023-12-20T07:51:21;7.20;99.90
33955;DHT22;20233;50.804;7.126;2023-12-20T07:53:47;7.20;99.90
33955;DHT22;20233;50.804;7.126;2023-12-20T07:56:16;7.10;99.90
33955;DHT22;20233;50.804;7.126;2023-12-20T07:58:43;7.20;99.90
33955;DHT22;20233;50.804;7.126;2023-12-20T08:01:09;7.10;99.90
33955;DHT22;20233;50.804;7.126;2023-12-20T08:03:35;7.10;99.90
33955;DHT22;20233;50.804;7.126;2023-12-20T08:06:00;7.20;99.90
33955;DHT22;20233;50.804;7.126;2023-12-20T08:08:26;7.10;99.90
33955;DHT22;20233;50.804;7.126;2023-12-20T08:10:51;7.10;99.90
33955;DHT22;20233;50.804;7.126;2023-12-20T08:13:17;7.20;99.90
33955;DHT22;20233;50.804;7.126;2023-12-20T08:15:42;7.20;99.90
33955;DHT22;20233;50.804;7.126;2023-12-20T08:18:08;7.20;99.90
33955;DHT22;20233;50.804;7.126;2023-12-20T08:20:34;7.30;99.90
33955;DHT22;20233;50.804;7.126;2023-12-20T08:22:59;7.20;99.90
33955;DHT22;20233;50.804;7.126;2023-12-20T08:25:25;7.20;99.90
33955;DHT22;20233;50.804;7.126;2023-12-20T08:27:50;7.20;99.90
33955;DHT22;20233;50.804;7.126;2023-12-20T08:30:16;7.30;99.90
33955;DHT22;20233;50.804;7.126;2023-12-20T08:32:46;7.30;99.90
33955;DHT22;20233;50.804;7.126;2023-12-20T08:35:11;7.30;99.90
33955;DHT22;20233;50.804;7.126;2023-12-20T08:37:37;7.30;99.90
33955;DHT22;20233;50.804;7.126;2023-12-20T08:40:02;7.30;99.90
33955;DHT22;20233;50.804;7.126;2023-12-20T08:42:28;7.30;99.90
33955;DHT22;20233;50.804;7.126;2023-12-20T08:44:57;7.30;99.90
33955;DHT22;20233;50.804;7.126;2023-12-20T08:47:24;7.30;99.90
33955;DHT22;20233;50.804;7.126;2023-12-20T08:49:50;7.30;99.90
33955;DHT22;20233;50.804;7.126;2023-12-20T08:52:16;7.30;99.90
33955;DHT22;20233;50.804;7.126;2023-12-20T08:54:42;7.30;99.90
33955;DHT22;20233;50.804;7.126;2023-12-20T08:57:07;7.30;99.90
33955;DHT22;20233;50.804;7.126;2023-12-20T08:59:33;7.30;99.90
33955;DHT22;20233;50.804;7.126;2023-12-20T09:01:59;7.30;99.90
33955;DHT22;20233;50.804;7.126;2023-12-20T09:04:25;7.20;99.90
33955;DHT22;20233;50.804;7.126;2023-12-20T09:06:50;7.20;99.90
33955;DHT22;20233;50.804;7.126;2023-12-20T09:09:16;7.30;99.90
33955;DHT22;20233;50.804;7.126;2023-12-20T09:11:41;7.30;99.90
33955;DHT22;20233;50.804;7.126;2023-12-20T09:14:07;7.30;99.90
33955;DHT22;20233;50.804;7.126;2023-12-20T09:16:33;7.30;99.90
33955;DHT22;20233;50.804;7.126;2023-12-20T09:18:58;7.30;99.90
33955;DHT22;20233;50.804;7.126;2023-12-20T09:21:24;7.30;99.90
33955;DHT22;20233;50.804;7.126;2023-12-20T09:23:50;7.40;99.90
33955;DHT22;20233;50.804;7.126;2023-12-20T09:26:15;7.40;99.90
33955;DHT22;20233;50.804;7.126;2023-12-20T09:28:41;7.30;99.90
33955;DHT22;20233;50.804;7.126;2023-12-20T09:31:06;7.40;99.90
33955;DHT22;20233;50.804;7.126;2023-12-20T09:33:33;7.30;99.90
33955;DHT22;20233;50.804;7.126;2023-12-20T09:35:58;7.40;99.90
33955;DHT22;20233;50.804;7.126;2023-12-20T09:38:24;7.40;99.90
33955;DHT22;20233;50.804;7.126;2023-12-20T09:40:50;7.40;99.90
33955;DHT22;20233;50.804;7.126;2023-12-20T09:43:19;7.50;99.90
33955;DHT22;20233;50.804;7.126;2023-12-20T09:45:46;7.50;99.90
33955;DHT22;20233;50.804;7.126;2023-12-20T09:48:12;7.50;99.90
33955;DHT22;20233;50.804;7.126;2023-12-20T09:50:40;7.50;99.90
33955;DHT22;20233;50.804;7.126;2023-12-20T09:53:08;7.50;99.90
33955;DHT22;20233;50.804;7.126;2023-12-20T09:55:36;7.50;99.90
33955;DHT22;20233;50.804;7.126;2023-12-20T09:58:02;7.50;99.90
33955;DHT22;20233;50.804;7.126;2023-12-20T10:00:28;7.50;99.90
33955;DHT22;20233;50.804;7.126;2023-12-20T10:02:58;7.50;99.90
33955;DHT22;20233;50.804;7.126;2023-12-20T10:05:31;7.50;99.90
33955;DHT22;20233;50.804;7.126;2023-12-20T10:07:58;7.50;99.90
33955;DHT22;20233;50.804;7.126;2023-12-20T10:10:24;7.50;99.90
33955;DHT22;20233;50.804;7.126;2023-12-20T10:13:12;7.50;99.90
33955;DHT22;20233;50.804;7.126;2023-12-20T10:15:38;7.60;99.90
33955;DHT22;20233;50.804;7.126;2023-12-20T10:18:04;7.60;99.90
33955;DHT22;20233;50.804;7.126;2023-12-20T10:20:31;7.60;99.90
33955;DHT22;20233;50.804;7.126;2023-12-20T10:22:57;7.50;99.90
33955;DHT22;20233;50.804;7.126;2023-12-20T10:25:24;7.60;99.90
33955;DHT22;20233;50.804;7.126;2023-12-20T10:27:57;7.60;99.90
33955;DHT22;20233;50.804;7.126;2023-12-20T10:30:33;7.60;99.90
33955;DHT22;20233;50.804;7.126;2023-12-20T10:32:59;7.60;99.90
33955;DHT22;20233;50.804;7.126;2023-12-20T10:35:24;7.60;99.90
33955;DHT22;20233;50.804;7.126;2023-12-20T10:37:52;7.60;99.90
33955;DHT22;20233;50.804;7.126;2023-12-20T10:40:20;7.60;99.90
33955;DHT22;20233;50.804;7.126;2023-12-20T10:42:47;7.60;99.90
33955;DHT22;20233;50.804;7.126;2023-12-20T10:45:12;7.60;99.90
33955;DHT22;20233;50.804;7.126;2023-12-20T10:47:39;7.70;99.90
33955;DHT22;20233;50.804;7.126;2023-12-20T10:50:06;7.70;99.90
33955;DHT22;20233;50.804;7.126;2023-12-20T10:52:32;7.70;99.90
33955;DHT22;20233;50.804;7.126;2023-12-20T10:54:59;7.80;99.90
33955;DHT22;20233;50.804;7.126;2023-12-20T10:57:27;7.80;99.90
33955;DHT22;20233;50.804;7.126;2023-12-20T10:59:54;7.80;99.90
33955;DHT22;20233;50.804;7.126;2023-12-20T11:02:20;7.80;99.90
33955;DHT22;20233;50.804;7.126;2023-12-20T11:05:03;7.80;99.90
33955;DHT22;20233;50.804;7.126;2023-12-20T11:07:38;7.80;99.90
33955;DHT22;20233;50.804;7.126;2023-12-20T11:10:31;7.90;99.90
33955;DHT22;20233;50.804;7.126;2023-12-20T11:13:05;7.90;99.90
33955;DHT22;20233;50.804;7.126;2023-12-20T11:15:35;7.90;99.90
33955;DHT22;20233;50.804;7.126;2023-12-20T11:18:02;7.80;99.90
33955;DHT22;20233;50.804;7.126;2023-12-20T11:20:40;7.90;99.90
33955;DHT22;20233;50.804;7.126;2023-12-20T11:23:06;7.90;99.90
33955;DHT22;20233;50.804;7.126;2023-12-20T11:25:52;7.90;99.90
33955;DHT22;20233;50.804;7.126;2023-12-20T11:28:21;7.90;99.90
33955;DHT22;20233;50.804;7.126;2023-12-20T11:30:58;7.90;99.90
33955;DHT22;20233;50.804;7.126;2023-12-20T11:33:36;7.90;99.90
33955;DHT22;20233;50.804;7.126;2023-12-20T11:36:01;8.00;99.90
33955;DHT22;20233;50.804;7.126;2023-12-20T11:38:36;7.90;99.90
33955;DHT22;20233;50.804;7.126;2023-12-20T11:41:05;7.90;99.90
33955;DHT22;20233;50.804;7.126;2023-12-20T11:43:38;8.00;99.90
33955;DHT22;20233;50.804;7.126;2023-12-20T11:46:08;8.00;99.90
33955;DHT22;20233;50.804;7.126;2023-12-20T11:48:36;8.00;99.90
33955;DHT22;20233;50.804;7.126;2023-12-20T11:51:02;8.00;99.90
33955;DHT22;20233;50.804;7.126;2023-12-20T11:53:29;8.00;99.90
33955;DHT22;20233;50.804;7.126;2023-12-20T11:55:56;8.10;99.90
33955;DHT22;20233;50.804;7.126;2023-12-20T11:58:21;8.10;99.90
33955;DHT22;20233;50.804;7.126;2023-12-20T12:00:49;8.20;99.90
33955;DHT22;20233;50.804;7.126;2023-12-20T12:03:16;8.20;99.90
33955;DHT22;20233;50.804;7.126;2023-12-20T12:05:41;8.20;99.90
33955;DHT22;20233;50.804;7.126;2023-12-20T12:08:07;8.30;99.90
33955;DHT22;20233;50.804;7.126;2023-12-20T12:10:33;8.30;99.90
33955;DHT22;20233;50.804;7.126;2023-12-20T12:12:59;8.20;99.90
33955;DHT22;20233;50.804;7.126;2023-12-20T12:15:25;8.20;99.90
33955;DHT22;20233;50.804;7.126;2023-12-20T12:17:54;8.20;99.90
33955;DHT22;20233;50.804;7.126;2023-12-20T12:20:21;8.20;99.90
33955;DHT22;20233;50.804;7.126;2023-12-20T12:22:57;8.20;99.90
33955;DHT22;20233;50.804;7.126;2023-12-20T12:25:23;8.20;99.90
33955;DHT22;20233;50.804;7.126;2023-12-20T12:27:51;8.30;99.90
33955;DHT22;20233;50.804;7.126;2023-12-20T12:30:16;8.20;99.90
33955;DHT22;20233;50.804;7.126;2023-12-20T12:32:44;8.30;99.90
33955;DHT22;20233;50.804;7.126;2023-12-20T12:35:10;8.20;99.90
33955;DHT22;20233;50.804;7.126;2023-12-20T12:37:38;8.20;99.90
33955;DHT22;20233;50.804;7.126;2023-12-20T12:40:06;8.20;99.90
33955;DHT22;20233;50.804;7.126;2023-12-20T12:42:32;8.20;99.90
33955;DHT22;20233;50.804;7.126;2023-12-20T12:44:57;8.20;99.90
33955;DHT22;20233;50.804;7.126;2023-12-20T12:47:23;8.20;99.90
33955;DHT22;20233;50.804;7.126;2023-12-20T12:49:51;8.20;99.90
33955;DHT22;20233;50.804;7.126;2023-12-20T12:52:17;8.20;99.90
33955;DHT22;20233;50.804;7.126;2023-12-20T12:54:43;8.20;99.90
33955;DHT22;20233;50.804;7.126;2023-12-20T12:57:10;8.10;99.90
33955;DHT22;20233;50.804;7.126;2023-12-20T12:59:36;8.10;99.90
33955;DHT22;20233;50.804;7.126;2023-12-20T13:02:02;8.20;99.90
33955;DHT22;20233;50.804;7.126;2023-12-20T13:04:27;8.20;99.90
33955;DHT22;20233;50.804;7.126;2023-12-20T13:06:53;8.20;99.90
33955;DHT22;20233;50.804;7.126;2023-12-20T13:09:18;8.20;99.90
33955;DHT22;20233;50.804;7.126;2023-12-20T13:11:45;8.10;99.90
33955;DHT22;20233;50.804;7.126;2023-12-20T13:14:11;8.20;99.90
33955;DHT22;20233;50.804;7.126;2023-12-20T13:16:41;8.20;99.90
33955;DHT22;20233;50.804;7.126;2023-12-20T13:19:07;8.20;99.90
33955;DHT22;20233;50.804;7.126;2023-12-20T13:21:33;8.20;99.90
33955;DHT22;20233;50.804;7.126;2023-12-20T13:23:59;8.20;99.90
33955;DHT22;20233;50.804;7.126;2023-12-20T13:26:24;8.20;99.90
33955;DHT22;20233;50.804;7.126;2023-12-20T13:28:50;8.30;99.90
33955;DHT22;20233;50.804;7.126;2023-12-20T13:31:15;8.20;99.90
33955;DHT22;20233;50.804;7.126;2023-12-20T13:33:41;8.20;99.90
33955;DHT22;20233;50.804;7.126;2023-12-20T13:36:07;8.10;99.90
33955;DHT22;20233;50.804;7.126;2023-12-20T13:38:32;8.00;99.90
33955;DHT22;20233;50.804;7.126;2023-12-20T13:40:59;8.00;99.90
33955;DHT22;20233;50.804;7.126;2023-12-20T13:43:24;7.90;99.90
33955;DHT22;20233;50.804;7.126;2023-12-20T13:45:50;7.90;99.90
33955;DHT22;20233;50.804;7.126;2023-12-20T13:48:16;8.00;99.90
33955;DHT22;20233;50.804;7.126;2023-12-20T13:50:42;7.90;99.90
33955;DHT22;20233;50.804;7.126;2023-12-20T13:53:07;7.90;99.90
33955;DHT22;20233;50.804;7.126;2023-12-20T13:55:33;7.90;99.90
33955;DHT22;20233;50.804;7.126;2023-12-20T13:57:58;8.00;99.90
33955;DHT22;20233;50.804;7.126;2023-12-20T14:00:24;8.00;99.90
33955;DHT22;20233;50.804;7.126;2023-12-20T14:02:49;8.00;99.90
33955;DHT22;20233;50.804;7.126;2023-12-20T14:05:16;8.00;99.90
33955;DHT22;20233;50.804;7.126;2023-12-20T14:07:43;7.90;99.90
33955;DHT22;20233;50.804;7.126;2023-12-20T14:10:12;7.90;99.90
33955;DHT22;20233;50.804;7.126;2023-12-20T14:12:41;7.90;99.90
33955;DHT22;20233;50.804;7.126;2023-12-20T14:15:07;8.00;99.90
33955;DHT22;20233;50.804;7.126;2023-12-20T14:17:38;8.00;99.90
33955;DHT22;20233;50.804;7.126;2023-12-20T14:20:07;7.90;99.90
33955;DHT22;20233;50.804;7.126;2023-12-20T14:22:34;8.00;99.90
33955;DHT22;20233;50.804;7.126;2023-12-20T14:24:59;8.00;99.90
33955;DHT22;20233;50.804;7.126;2023-12-20T14:27:26;8.00;99.90
33955;DHT22;20233;50.804;7.126;2023-12-20T14:29:53;8.00;99.90
33955;DHT22;20233;50.804;7.126;2023-12-20T14:32:19;8.00;99.90
33955;DHT22;20233;50.804;7.126;2023-12-20T14:34:45;8.00;99.90
33955;DHT22;20233;50.804;7.126;2023-12-20T14:37:10;8.00;99.90
33955;DHT22;20233;50.804;7.126;2023-12-20T14:39:36;8.10;99.90
33955;DHT22;20233;50.804;7.126;2023-12-20T14:42:07;8.00;99.90
33955;DHT22;20233;50.804;7.126;2023-12-20T14:44:34;8.00;99.90
33955;DHT22;20233;50.804;7.126;2023-12-20T14:47:00;8.00;99.90
33955;DHT22;20233;50.804;7.126;2023-12-20T14:49:27;8.00;99.90
33955;DHT22;20233;50.804;7.126;2023-12-20T14:51:53;8.00;99.90
33955;DHT22;20233;50.804;7.126;2023-12-20T14:54:19;8.10;99.90
33955;DHT22;20233;50.804;7.126;2023-12-20T14:56:46;8.00;99.90
33955;DHT22;20233;50.804;7.126;2023-12-20T14:59:12;8.00;99.90
33955;DHT22;20233;50.804;7.126;2023-12-20T15:01:37;8.00;99.90
33955;DHT22;20233;50.804;7.126;2023-12-20T15:04:06;8.00;99.90
33955;DHT22;20233;50.804;7.126;2023-12-20T15:06:32;8.00;99.90
33955;DHT22;20233;50.804;7.126;2023-12-20T15:08:59;8.10;99.90
33955;DHT22;20233;50.804;7.126;2023-12-20T15:11:25;8.10;99.90
33955;DHT22;20233;50.804;7.126;2023-12-20T15:13:51;8.10;99.90
33955;DHT22;20233;50.804;7.126;2023-12-20T15:16:23;8.10;99.90
33955;DHT22;20233;50.804;7.126;2023-12-20T15:18:49;8.10;99.90
33955;DHT22;20233;50.804;7.126;2023-12-20T15:21:16;8.10;99.90
33955;DHT22;20233;50.804;7.126;2023-12-20T15:23:41;8.10;99.90
33955;DHT22;20233;50.804;7.126;2023-12-20T15:26:21;8.10;99.90
33955;DHT22;20233;50.804;7.126;2023-12-20T15:28:47;8.20;99.90
33955;DHT22;20233;50.804;7.126;2023-12-20T15:31:12;8.20;99.90
33955;DHT22;20233;50.804;7.126;2023-12-20T15:33:39;8.20;99.90
33955;DHT22;20233;50.804;7.126;2023-12-20T15:36:05;8.20;99.90
33955;DHT22;20233;50.804;7.126;2023-12-20T15:38:31;8.10;99.90
33955;DHT22;20233;50.804;7.126;2023-12-20T15:40:56;8.20;99.90
33955;DHT22;20233;50.804;7.126;2023-12-20T15:43:22;8.20;99.90